Station Historical Data
Daily Summary for July 15, 2017 Units:  Both    English   Metric
« Previous Day
Next Day »
Daily Weekly Monthly Yearly Custom
  High: Low: Average:
Temperature: 75.6 °F /  24.2 °C 62.8 °F /  17.1 °C 68.8 °F /  20.4 °C
Dew Point: 65.3 °F /  18.5 °C 58.2 °F /  14.6 °C 61.5 °F /  16.4 °C
Humidity: 85% 65% 78%
Wind Speed: 14.0mph /  22.5km/h - 4.3mph /  6.9km/h
Wind Gust: 17.0mph /  27.4km/h - -
Wind- - West
Pressure: 30.02 in /  1016.5 hPa 29.94 in /  1013.8 hPa -
Precipitation: 0.00 in /  0 mm    
Historical Graphs
 
 
Tabular Data for July 15, 2017
Time Temperature Dew Point Pressure Wind Wind Speed Wind Gust Humidity Rainfall Rate (Hourly)
00:04 66.6 °F /  19.2 °C 59.9 °F /  15.5 °C 29.95in /  1014.1hPa WNW 1.0mph /  1.6km/h 3.0mph /  4.8km/h 79% 0.00in /  0mm
00:09 66.5 °F /  19.2 °C 59.8 °F /  15.4 °C 29.96in /  1014.4hPa WNW 1.0mph /  1.6km/h 3.0mph /  4.8km/h 79% 0.00in /  0mm
00:14 66.6 °F /  19.2 °C 59.9 °F /  15.5 °C 29.96in /  1014.4hPa WNW 1.0mph /  1.6km/h 4.0mph /  6.4km/h 79% 0.00in /  0mm
00:24 66.4 °F /  19.1 °C 59.7 °F /  15.4 °C 29.96in /  1014.4hPa WNW 1.0mph /  1.6km/h 3.0mph /  4.8km/h 79% 0.00in /  0mm
00:29 66.4 °F /  19.1 °C 59.7 °F /  15.4 °C 29.96in /  1014.4hPa Calm   3.0mph /  4.8km/h 79% 0.00in /  0mm
00:34 66.3 °F /  19.1 °C 59.9 °F /  15.5 °C 29.96in /  1014.4hPa Calm   3.0mph /  4.8km/h 80% 0.00in /  0mm
00:39 66.3 °F /  19.1 °C 59.9 °F /  15.5 °C 29.96in /  1014.4hPa West 2.0mph /  3.2km/h 3.0mph /  4.8km/h 80% 0.00in /  0mm
00:44 66.2 °F /  19 °C 59.8 °F /  15.4 °C 29.96in /  1014.4hPa West 3.0mph /  4.8km/h 4.0mph /  6.4km/h 80% 0.00in /  0mm
00:49 66.3 °F /  19.1 °C 59.9 °F /  15.5 °C 29.96in /  1014.4hPa West 2.0mph /  3.2km/h 5.0mph /  8km/h 80% 0.00in /  0mm
00:54 66.2 °F /  19 °C 59.8 °F /  15.4 °C 29.95in /  1014.1hPa West 2.0mph /  3.2km/h 5.0mph /  8km/h 80% 0.00in /  0mm
00:59 66.2 °F /  19 °C 59.8 °F /  15.4 °C 29.96in /  1014.4hPa West 1.0mph /  1.6km/h 5.0mph /  8km/h 80% 0.00in /  0mm
01:04 66.1 °F /  18.9 °C 59.7 °F /  15.4 °C 29.95in /  1014.1hPa West 3.0mph /  4.8km/h 6.0mph /  9.7km/h 80% 0.00in /  0mm
01:09 66.2 °F /  19 °C 59.8 °F /  15.4 °C 29.95in /  1014.1hPa West 3.0mph /  4.8km/h 7.0mph /  11.3km/h 80% 0.00in /  0mm
01:14 66.1 °F /  18.9 °C 59.7 °F /  15.4 °C 29.95in /  1014.1hPa WNW 3.0mph /  4.8km/h 5.0mph /  8km/h 80% 0.00in /  0mm
01:19 65.9 °F /  18.8 °C 59.6 °F /  15.3 °C 29.95in /  1014.1hPa WNW 3.0mph /  4.8km/h 7.0mph /  11.3km/h 80% 0.00in /  0mm
01:24 65.9 °F /  18.8 °C 59.2 °F /  15.1 °C 29.95in /  1014.1hPa WNW 4.0mph /  6.4km/h 8.0mph /  12.9km/h 79% 0.00in /  0mm
01:29 65.9 °F /  18.8 °C 59.2 °F /  15.1 °C 29.95in /  1014.1hPa WSW 2.0mph /  3.2km/h 6.0mph /  9.7km/h 79% 0.00in /  0mm
01:34 65.9 °F /  18.8 °C 59.2 °F /  15.1 °C 29.95in /  1014.1hPa West 3.0mph /  4.8km/h 6.0mph /  9.7km/h 79% 0.00in /  0mm
01:39 65.6 °F /  18.7 °C 58.9 °F /  14.9 °C 29.95in /  1014.1hPa West 2.0mph /  3.2km/h 5.0mph /  8km/h 79% 0.00in /  0mm
01:44 65.6 °F /  18.7 °C 59.3 °F /  15.2 °C 29.95in /  1014.1hPa West 2.0mph /  3.2km/h 5.0mph /  8km/h 80% 0.00in /  0mm
01:49 65.3 °F /  18.5 °C 59.0 °F /  15 °C 29.95in /  1014.1hPa WNW 2.0mph /  3.2km/h 5.0mph /  8km/h 80% 0.00in /  0mm
01:54 65.2 °F /  18.4 °C 58.9 °F /  14.9 °C 29.95in /  1014.1hPa WNW 4.0mph /  6.4km/h 5.0mph /  8km/h 80% 0.00in /  0mm
01:59 65.1 °F /  18.4 °C 58.8 °F /  14.9 °C 29.95in /  1014.1hPa WNW 1.0mph /  1.6km/h 5.0mph /  8km/h 80% 0.00in /  0mm
02:04 65.2 °F /  18.4 °C 58.9 °F /  14.9 °C 29.95in /  1014.1hPa West 3.0mph /  4.8km/h 6.0mph /  9.7km/h 80% 0.00in /  0mm
02:09 65.1 °F /  18.4 °C 58.8 °F /  14.9 °C 29.95in /  1014.1hPa West 3.0mph /  4.8km/h 6.0mph /  9.7km/h 80% 0.00in /  0mm
02:14 64.8 °F /  18.2 °C 58.8 °F /  14.9 °C 29.95in /  1014.1hPa Calm   2.0mph /  3.2km/h 81% 0.00in /  0mm
02:19 64.7 °F /  18.2 °C 59.1 °F /  15.1 °C 29.95in /  1014.1hPa WNW 3.0mph /  4.8km/h 4.0mph /  6.4km/h 82% 0.00in /  0mm
02:24 64.6 °F /  18.1 °C 59.0 °F /  15 °C 29.95in /  1014.1hPa WNW 3.0mph /  4.8km/h 5.0mph /  8km/h 82% 0.00in /  0mm
02:29 64.5 °F /  18.1 °C 58.9 °F /  14.9 °C 29.95in /  1014.1hPa West 1.0mph /  1.6km/h 4.0mph /  6.4km/h 82% 0.00in /  0mm
02:34 64.5 °F /  18.1 °C 58.9 °F /  14.9 °C 29.95in /  1014.1hPa West 2.0mph /  3.2km/h 4.0mph /  6.4km/h 82% 0.00in /  0mm
02:39 64.5 °F /  18.1 °C 58.9 °F /  14.9 °C 29.95in /  1014.1hPa WNW 2.0mph /  3.2km/h 7.0mph /  11.3km/h 82% 0.00in /  0mm
02:44 64.5 °F /  18.1 °C 58.9 °F /  14.9 °C 29.95in /  1014.1hPa WNW 2.0mph /  3.2km/h 7.0mph /  11.3km/h 82% 0.00in /  0mm
02:49 64.6 °F /  18.1 °C 59.0 °F /  15 °C 29.95in /  1014.1hPa WNW 3.0mph /  4.8km/h 7.0mph /  11.3km/h 82% 0.00in /  0mm
02:54 64.7 °F /  18.2 °C 59.1 °F /  15.1 °C 29.95in /  1014.1hPa WNW 3.0mph /  4.8km/h 6.0mph /  9.7km/h 82% 0.00in /  0mm
02:59 64.7 °F /  18.2 °C 59.1 °F /  15.1 °C 29.95in /  1014.1hPa WNW 3.0mph /  4.8km/h 7.0mph /  11.3km/h 82% 0.00in /  0mm
03:04 64.7 °F /  18.2 °C 58.7 °F /  14.8 °C 29.95in /  1014.1hPa WNW 3.0mph /  4.8km/h 7.0mph /  11.3km/h 81% 0.00in /  0mm
03:09 64.5 °F /  18.1 °C 58.5 °F /  14.7 °C 29.95in /  1014.1hPa WNW 4.0mph /  6.4km/h 6.0mph /  9.7km/h 81% 0.00in /  0mm
03:14 64.5 °F /  18.1 °C 58.9 °F /  14.9 °C 29.95in /  1014.1hPa WNW 4.0mph /  6.4km/h 5.0mph /  8km/h 82% 0.00in /  0mm
03:19 64.5 °F /  18.1 °C 58.9 °F /  14.9 °C 29.95in /  1014.1hPa West 3.0mph /  4.8km/h 5.0mph /  8km/h 82% 0.00in /  0mm
03:24 64.5 °F /  18.1 °C 58.9 °F /  14.9 °C 29.95in /  1014.1hPa WNW 3.0mph /  4.8km/h 6.0mph /  9.7km/h 82% 0.00in /  0mm
03:29 64.5 °F /  18.1 °C 58.9 °F /  14.9 °C 29.95in /  1014.1hPa WNW 7.0mph /  11.3km/h 8.0mph /  12.9km/h 82% 0.00in /  0mm
03:34 64.5 °F /  18.1 °C 58.9 °F /  14.9 °C 29.95in /  1014.1hPa West 4.0mph /  6.4km/h 8.0mph /  12.9km/h 82% 0.00in /  0mm
03:39 64.5 °F /  18.1 °C 58.9 °F /  14.9 °C 29.95in /  1014.1hPa West 3.0mph /  4.8km/h 7.0mph /  11.3km/h 82% 0.00in /  0mm
03:44 64.5 °F /  18.1 °C 58.9 °F /  14.9 °C 29.95in /  1014.1hPa West 4.0mph /  6.4km/h 7.0mph /  11.3km/h 82% 0.00in /  0mm
03:49 64.5 °F /  18.1 °C 58.9 °F /  14.9 °C 29.95in /  1014.1hPa West 3.0mph /  4.8km/h 7.0mph /  11.3km/h 82% 0.00in /  0mm
03:54 64.3 °F /  17.9 °C 58.7 °F /  14.8 °C 29.96in /  1014.4hPa WNW 2.0mph /  3.2km/h 6.0mph /  9.7km/h 82% 0.00in /  0mm
03:59 64.1 °F /  17.8 °C 58.8 °F /  14.9 °C 29.95in /  1014.1hPa Calm   7.0mph /  11.3km/h 83% 0.00in /  0mm
04:04 63.9 °F /  17.7 °C 58.6 °F /  14.8 °C 29.95in /  1014.1hPa WNW 2.0mph /  3.2km/h 7.0mph /  11.3km/h 83% 0.00in /  0mm
04:09 63.8 °F /  17.7 °C 58.5 °F /  14.7 °C 29.96in /  1014.4hPa WNW 3.0mph /  4.8km/h 5.0mph /  8km/h 83% 0.00in /  0mm
04:14 63.9 °F /  17.7 °C 58.6 °F /  14.8 °C 29.96in /  1014.4hPa WNW 2.0mph /  3.2km/h 9.0mph /  14.5km/h 83% 0.00in /  0mm
04:19 63.8 °F /  17.7 °C 58.5 °F /  14.7 °C 29.96in /  1014.4hPa WNW 3.0mph /  4.8km/h 9.0mph /  14.5km/h 83% 0.00in /  0mm
04:24 63.7 °F /  17.6 °C 58.8 °F /  14.9 °C 29.96in /  1014.4hPa WNW 2.0mph /  3.2km/h 9.0mph /  14.5km/h 84% 0.00in /  0mm
04:29 63.5 °F /  17.5 °C 58.6 °F /  14.8 °C 29.96in /  1014.4hPa WNW 3.0mph /  4.8km/h 6.0mph /  9.7km/h 84% 0.00in /  0mm
04:34 63.3 °F /  17.4 °C 58.4 °F /  14.7 °C 29.96in /  1014.4hPa WNW 3.0mph /  4.8km/h 6.0mph /  9.7km/h 84% 0.00in /  0mm
04:39 63.1 °F /  17.3 °C 58.5 °F /  14.7 °C 29.96in /  1014.4hPa WNW 2.0mph /  3.2km/h 5.0mph /  8km/h 85% 0.00in /  0mm
04:44 62.9 °F /  17.2 °C 58.3 °F /  14.6 °C 29.96in /  1014.4hPa WNW 2.0mph /  3.2km/h 6.0mph /  9.7km/h 85% 0.00in /  0mm
04:49 62.9 °F /  17.2 °C 58.3 °F /  14.6 °C 29.97in /  1014.8hPa WNW 3.0mph /  4.8km/h 6.0mph /  9.7km/h 85% 0.00in /  0mm
04:54 62.8 °F /  17.1 °C 58.2 °F /  14.6 °C 29.97in /  1014.8hPa WNW 4.0mph /  6.4km/h 9.0mph /  14.5km/h 85% 0.00in /  0mm
04:59 62.8 °F /  17.1 °C 58.2 °F /  14.6 °C 29.97in /  1014.8hPa WNW 5.0mph /  8km/h 6.0mph /  9.7km/h 85% 0.00in /  0mm
05:04 62.9 °F /  17.2 °C 58.3 °F /  14.6 °C 29.97in /  1014.8hPa WNW 4.0mph /  6.4km/h 10.0mph /  16.1km/h 85% 0.00in /  0mm
05:09 63.0 °F /  17.2 °C 58.4 °F /  14.7 °C 29.97in /  1014.8hPa WNW 5.0mph /  8km/h 11.0mph /  17.7km/h 85% 0.00in /  0mm
05:14 63.2 °F /  17.3 °C 58.3 °F /  14.6 °C 29.98in /  1015.1hPa West 7.0mph /  11.3km/h 8.0mph /  12.9km/h 84% 0.00in /  0mm
05:19 63.4 °F /  17.4 °C 58.5 °F /  14.7 °C 29.98in /  1015.1hPa NW 6.0mph /  9.7km/h 8.0mph /  12.9km/h 84% 0.00in /  0mm
05:24 63.4 °F /  17.4 °C 58.5 °F /  14.7 °C 29.98in /  1015.1hPa WNW 3.0mph /  4.8km/h 8.0mph /  12.9km/h 84% 0.00in /  0mm
05:29 63.5 °F /  17.5 °C 58.6 °F /  14.8 °C 29.98in /  1015.1hPa West 4.0mph /  6.4km/h 6.0mph /  9.7km/h 84% 0.00in /  0mm
05:34 63.5 °F /  17.5 °C 58.6 °F /  14.8 °C 29.98in /  1015.1hPa West 4.0mph /  6.4km/h 9.0mph /  14.5km/h 84% 0.00in /  0mm
05:39 63.6 °F /  17.6 °C 58.7 °F /  14.8 °C 29.99in /  1015.5hPa West 5.0mph /  8km/h 9.0mph /  14.5km/h 84% 0.00in /  0mm
05:44 63.7 °F /  17.6 °C 58.4 °F /  14.7 °C 29.99in /  1015.5hPa West 5.0mph /  8km/h 10.0mph /  16.1km/h 83% 0.00in /  0mm
05:49 63.7 °F /  17.6 °C 58.4 °F /  14.7 °C 29.99in /  1015.5hPa West 2.0mph /  3.2km/h 8.0mph /  12.9km/h 83% 0.00in /  0mm
05:54 63.7 °F /  17.6 °C 58.4 °F /  14.7 °C 29.99in /  1015.5hPa West 3.0mph /  4.8km/h 9.0mph /  14.5km/h 83% 0.00in /  0mm
05:59 63.7 °F /  17.6 °C 58.4 °F /  14.7 °C 29.99in /  1015.5hPa WNW 4.0mph /  6.4km/h 8.0mph /  12.9km/h 83% 0.00in /  0mm
06:04 63.7 °F /  17.6 °C 58.4 °F /  14.7 °C 29.99in /  1015.5hPa WNW 5.0mph /  8km/h 8.0mph /  12.9km/h 83% 0.00in /  0mm
06:09 63.8 °F /  17.7 °C 58.5 °F /  14.7 °C 29.99in /  1015.5hPa WNW 4.0mph /  6.4km/h 8.0mph /  12.9km/h 83% 0.00in /  0mm
06:14 63.8 °F /  17.7 °C 58.5 °F /  14.7 °C 29.99in /  1015.5hPa West 4.0mph /  6.4km/h 9.0mph /  14.5km/h 83% 0.00in /  0mm
06:19 63.8 °F /  17.7 °C 58.5 °F /  14.7 °C 29.99in /  1015.5hPa West 6.0mph /  9.7km/h 8.0mph /  12.9km/h 83% 0.00in /  0mm
06:24 63.8 °F /  17.7 °C 58.5 °F /  14.7 °C 29.99in /  1015.5hPa WNW 3.0mph /  4.8km/h 8.0mph /  12.9km/h 83% 0.00in /  0mm
06:29 63.8 °F /  17.7 °C 58.5 °F /  14.7 °C 29.99in /  1015.5hPa West 3.0mph /  4.8km/h 9.0mph /  14.5km/h 83% 0.00in /  0mm
06:34 63.7 °F /  17.6 °C 58.4 °F /  14.7 °C 30.00in /  1015.8hPa WNW 4.0mph /  6.4km/h 9.0mph /  14.5km/h 83% 0.00in /  0mm
06:39 63.6 °F /  17.6 °C 58.3 °F /  14.6 °C 30.00in /  1015.8hPa West 3.0mph /  4.8km/h 6.0mph /  9.7km/h 83% 0.00in /  0mm
06:44 63.7 °F /  17.6 °C 58.4 °F /  14.7 °C 29.99in /  1015.5hPa WNW 3.0mph /  4.8km/h 7.0mph /  11.3km/h 83% 0.00in /  0mm
06:49 63.8 °F /  17.7 °C 58.5 °F /  14.7 °C 30.00in /  1015.8hPa WSW 4.0mph /  6.4km/h 6.0mph /  9.7km/h 83% 0.00in /  0mm
06:54 63.8 °F /  17.7 °C 58.5 °F /  14.7 °C 30.00in /  1015.8hPa WNW 6.0mph /  9.7km/h 7.0mph /  11.3km/h 83% 0.00in /  0mm
06:59 63.9 °F /  17.7 °C 58.6 °F /  14.8 °C 30.00in /  1015.8hPa West 3.0mph /  4.8km/h 7.0mph /  11.3km/h 83% 0.00in /  0mm
07:04 64.1 °F /  17.8 °C 58.8 °F /  14.9 °C 30.00in /  1015.8hPa WNW 4.0mph /  6.4km/h 7.0mph /  11.3km/h 83% 0.00in /  0mm
07:09 64.1 °F /  17.8 °C 58.8 °F /  14.9 °C 30.00in /  1015.8hPa WNW 3.0mph /  4.8km/h 6.0mph /  9.7km/h 83% 0.00in /  0mm
07:14 64.5 °F /  18.1 °C 58.9 °F /  14.9 °C 30.00in /  1015.8hPa West 3.0mph /  4.8km/h 8.0mph /  12.9km/h 82% 0.00in /  0mm
07:19 64.5 °F /  18.1 °C 58.9 °F /  14.9 °C 30.00in /  1015.8hPa West 4.0mph /  6.4km/h 8.0mph /  12.9km/h 82% 0.00in /  0mm
07:24 64.4 °F /  18 °C 58.8 °F /  14.9 °C 30.00in /  1015.8hPa West 3.0mph /  4.8km/h 7.0mph /  11.3km/h 82% 0.00in /  0mm
07:29 64.4 °F /  18 °C 59.1 °F /  15.1 °C 30.00in /  1015.8hPa Calm   4.0mph /  6.4km/h 83% 0.00in /  0mm
07:34 64.5 °F /  18.1 °C 58.9 °F /  14.9 °C 30.00in /  1015.8hPa West 3.0mph /  4.8km/h 7.0mph /  11.3km/h 82% 0.00in /  0mm
07:39 64.5 °F /  18.1 °C 59.2 °F /  15.1 °C 30.00in /  1015.8hPa West 3.0mph /  4.8km/h 6.0mph /  9.7km/h 83% 0.00in /  0mm
07:44 64.5 °F /  18.1 °C 59.2 °F /  15.1 °C 30.00in /  1015.8hPa West 8.0mph /  12.9km/h 8.0mph /  12.9km/h 83% 0.00in /  0mm
07:49 64.5 °F /  18.1 °C 59.2 °F /  15.1 °C 30.01in /  1016.1hPa West 5.0mph /  8km/h 8.0mph /  12.9km/h 83% 0.00in /  0mm
07:54 64.5 °F /  18.1 °C 59.2 °F /  15.1 °C 30.01in /  1016.1hPa WNW 3.0mph /  4.8km/h 7.0mph /  11.3km/h 83% 0.00in /  0mm
07:59 64.5 °F /  18.1 °C 59.2 °F /  15.1 °C 30.01in /  1016.1hPa West 4.0mph /  6.4km/h 5.0mph /  8km/h 83% 0.00in /  0mm
08:04 64.6 °F /  18.1 °C 59.3 °F /  15.2 °C 30.01in /  1016.1hPa WNW 4.0mph /  6.4km/h 8.0mph /  12.9km/h 83% 0.00in /  0mm
08:09 64.5 °F /  18.1 °C 59.2 °F /  15.1 °C 30.01in /  1016.1hPa WNW 4.0mph /  6.4km/h 8.0mph /  12.9km/h 83% 0.00in /  0mm
08:14 64.7 °F /  18.2 °C 59.4 °F /  15.2 °C 30.01in /  1016.1hPa WNW 3.0mph /  4.8km/h 7.0mph /  11.3km/h 83% 0.00in /  0mm
08:19 64.7 °F /  18.2 °C 59.4 °F /  15.2 °C 30.01in /  1016.1hPa WNW 2.0mph /  3.2km/h 6.0mph /  9.7km/h 83% 0.00in /  0mm
08:24 64.7 °F /  18.2 °C 59.4 °F /  15.2 °C 30.01in /  1016.1hPa WNW 3.0mph /  4.8km/h 7.0mph /  11.3km/h 83% 0.00in /  0mm
08:29 64.9 °F /  18.3 °C 59.6 °F /  15.3 °C 30.01in /  1016.1hPa NW 2.0mph /  3.2km/h 8.0mph /  12.9km/h 83% 0.00in /  0mm
08:34 64.9 °F /  18.3 °C 59.6 °F /  15.3 °C 30.01in /  1016.1hPa WNW 3.0mph /  4.8km/h 7.0mph /  11.3km/h 83% 0.00in /  0mm
08:39 65.2 °F /  18.4 °C 59.9 °F /  15.5 °C 30.01in /  1016.1hPa WNW 4.0mph /  6.4km/h 8.0mph /  12.9km/h 83% 0.00in /  0mm
08:44 65.7 °F /  18.7 °C 60.1 °F /  15.6 °C 30.01in /  1016.1hPa NW 3.0mph /  4.8km/h 8.0mph /  12.9km/h 82% 0.00in /  0mm
08:49 65.8 °F /  18.8 °C 60.2 °F /  15.7 °C 30.01in /  1016.1hPa West 6.0mph /  9.7km/h 8.0mph /  12.9km/h 82% 0.00in /  0mm
08:54 65.9 °F /  18.8 °C 59.9 °F /  15.5 °C 30.01in /  1016.1hPa WSW 4.0mph /  6.4km/h 8.0mph /  12.9km/h 81% 0.00in /  0mm
08:59 65.8 °F /  18.8 °C 59.8 °F /  15.4 °C 30.01in /  1016.1hPa West 3.0mph /  4.8km/h 9.0mph /  14.5km/h 81% 0.00in /  0mm
09:04 65.8 °F /  18.8 °C 59.8 °F /  15.4 °C 30.02in /  1016.5hPa WNW 4.0mph /  6.4km/h 9.0mph /  14.5km/h 81% 0.00in /  0mm
09:09 65.9 °F /  18.8 °C 59.9 °F /  15.5 °C 30.01in /  1016.1hPa WNW 4.0mph /  6.4km/h 8.0mph /  12.9km/h 81% 0.00in /  0mm
09:14 65.8 °F /  18.8 °C 59.8 °F /  15.4 °C 30.02in /  1016.5hPa WNW 4.0mph /  6.4km/h 8.0mph /  12.9km/h 81% 0.00in /  0mm
09:19 65.7 °F /  18.7 °C 60.1 °F /  15.6 °C 30.02in /  1016.5hPa West 2.0mph /  3.2km/h 6.0mph /  9.7km/h 82% 0.00in /  0mm
09:24 65.7 °F /  18.7 °C 60.1 °F /  15.6 °C 30.01in /  1016.1hPa West 2.0mph /  3.2km/h 6.0mph /  9.7km/h 82% 0.00in /  0mm
09:29 65.7 °F /  18.7 °C 60.1 °F /  15.6 °C 30.02in /  1016.5hPa WNW 1.0mph /  1.6km/h 7.0mph /  11.3km/h 82% 0.00in /  0mm
09:34 66.1 °F /  18.9 °C 60.1 °F /  15.6 °C 30.01in /  1016.1hPa West 3.0mph /  4.8km/h 7.0mph /  11.3km/h 81% 0.00in /  0mm
09:39 66.5 °F /  19.2 °C 60.5 °F /  15.8 °C 30.01in /  1016.1hPa West 3.0mph /  4.8km/h 6.0mph /  9.7km/h 81% 0.00in /  0mm
09:44 66.7 °F /  19.3 °C 60.3 °F /  15.7 °C 30.01in /  1016.1hPa West 3.0mph /  4.8km/h 6.0mph /  9.7km/h 80% 0.00in /  0mm
09:49 66.9 °F /  19.4 °C 60.5 °F /  15.8 °C 30.02in /  1016.5hPa WNW 3.0mph /  4.8km/h 7.0mph /  11.3km/h 80% 0.00in /  0mm
09:54 66.8 °F /  19.3 °C 60.4 °F /  15.8 °C 30.02in /  1016.5hPa WNW 3.0mph /  4.8km/h 7.0mph /  11.3km/h 80% 0.00in /  0mm
09:59 67.1 °F /  19.5 °C 60.7 °F /  15.9 °C 30.01in /  1016.1hPa WNW 1.0mph /  1.6km/h 4.0mph /  6.4km/h 80% 0.00in /  0mm
10:04 67.3 °F /  19.6 °C 60.6 °F /  15.9 °C 30.01in /  1016.1hPa WNW 2.0mph /  3.2km/h 5.0mph /  8km/h 79% 0.00in /  0mm
10:09 67.7 °F /  19.8 °C 61.0 °F /  16.1 °C 30.01in /  1016.1hPa WNW 2.0mph /  3.2km/h 5.0mph /  8km/h 79% 0.00in /  0mm
10:14 68.1 °F /  20.1 °C 61.3 °F /  16.3 °C 30.01in /  1016.1hPa WNW 2.0mph /  3.2km/h 7.0mph /  11.3km/h 79% 0.00in /  0mm
10:19 68.0 °F /  20 °C 60.9 °F /  16.1 °C 30.01in /  1016.1hPa West 1.0mph /  1.6km/h 5.0mph /  8km/h 78% 0.00in /  0mm
10:24 68.1 °F /  20.1 °C 61.0 °F /  16.1 °C 30.01in /  1016.1hPa West 5.0mph /  8km/h 5.0mph /  8km/h 78% 0.00in /  0mm
10:29 68.0 °F /  20 °C 60.9 °F /  16.1 °C 30.01in /  1016.1hPa WNW 3.0mph /  4.8km/h 7.0mph /  11.3km/h 78% 0.00in /  0mm
10:34 67.9 °F /  19.9 °C 60.8 °F /  16 °C 30.01in /  1016.1hPa West 3.0mph /  4.8km/h 7.0mph /  11.3km/h 78% 0.00in /  0mm
10:39 68.3 °F /  20.2 °C 61.2 °F /  16.2 °C 30.01in /  1016.1hPa West 3.0mph /  4.8km/h 6.0mph /  9.7km/h 78% 0.00in /  0mm
10:44 68.4 °F /  20.2 °C 60.9 °F /  16.1 °C 30.01in /  1016.1hPa West 2.0mph /  3.2km/h 8.0mph /  12.9km/h 77% 0.00in /  0mm
10:49 68.5 °F /  20.3 °C 61.0 °F /  16.1 °C 30.01in /  1016.1hPa West 3.0mph /  4.8km/h 8.0mph /  12.9km/h 77% 0.00in /  0mm
10:54 68.8 °F /  20.4 °C 61.7 °F /  16.5 °C 30.01in /  1016.1hPa West 3.0mph /  4.8km/h 6.0mph /  9.7km/h 78% 0.00in /  0mm
10:59 69.0 °F /  20.6 °C 61.5 °F /  16.4 °C 30.02in /  1016.5hPa West 3.0mph /  4.8km/h 6.0mph /  9.7km/h 77% 0.00in /  0mm
11:04 69.0 °F /  20.6 °C 61.1 °F /  16.2 °C 30.01in /  1016.1hPa West 3.0mph /  4.8km/h 8.0mph /  12.9km/h 76% 0.00in /  0mm
11:09 69.5 °F /  20.8 °C 61.6 °F /  16.4 °C 30.01in /  1016.1hPa West 4.0mph /  6.4km/h 8.0mph /  12.9km/h 76% 0.00in /  0mm
11:14 69.6 °F /  20.9 °C 61.7 °F /  16.5 °C 30.01in /  1016.1hPa West 1.0mph /  1.6km/h 6.0mph /  9.7km/h 76% 0.00in /  0mm
11:19 69.9 °F /  21.1 °C 61.6 °F /  16.4 °C 30.01in /  1016.1hPa WSW 5.0mph /  8km/h 7.0mph /  11.3km/h 75% 0.00in /  0mm
11:24 71.1 °F /  21.7 °C 62.4 °F /  16.9 °C 30.01in /  1016.1hPa Calm   7.0mph /  11.3km/h 74% 0.00in /  0mm
11:29 70.9 °F /  21.6 °C 61.4 °F /  16.3 °C 30.01in /  1016.1hPa WSW 3.0mph /  4.8km/h 6.0mph /  9.7km/h 72% 0.00in /  0mm
11:34 70.6 °F /  21.4 °C 61.5 °F /  16.4 °C 30.01in /  1016.1hPa West 3.0mph /  4.8km/h 6.0mph /  9.7km/h 73% 0.00in /  0mm
11:39 70.6 °F /  21.4 °C 61.5 °F /  16.4 °C 30.01in /  1016.1hPa WSW 3.0mph /  4.8km/h 7.0mph /  11.3km/h 73% 0.00in /  0mm
11:44 70.8 °F /  21.6 °C 61.3 °F /  16.3 °C 30.01in /  1016.1hPa West 3.0mph /  4.8km/h 7.0mph /  11.3km/h 72% 0.00in /  0mm
11:49 70.5 °F /  21.4 °C 61.0 °F /  16.1 °C 30.01in /  1016.1hPa WNW 2.0mph /  3.2km/h 7.0mph /  11.3km/h 72% 0.00in /  0mm
11:54 70.4 °F /  21.3 °C 60.9 °F /  16.1 °C 30.01in /  1016.1hPa West 3.0mph /  4.8km/h 8.0mph /  12.9km/h 72% 0.00in /  0mm
11:59 70.1 °F /  21.2 °C 60.7 °F /  15.9 °C 30.01in /  1016.1hPa West 5.0mph /  8km/h 6.0mph /  9.7km/h 72% 0.00in /  0mm
12:04 70.4 °F /  21.3 °C 61.3 °F /  16.3 °C 30.01in /  1016.1hPa West 3.0mph /  4.8km/h 6.0mph /  9.7km/h 73% 0.00in /  0mm
12:09 70.6 °F /  21.4 °C 61.5 °F /  16.4 °C 30.01in /  1016.1hPa West 3.0mph /  4.8km/h 8.0mph /  12.9km/h 73% 0.00in /  0mm
12:14 70.6 °F /  21.4 °C 61.1 °F /  16.2 °C 30.01in /  1016.1hPa West 4.0mph /  6.4km/h 7.0mph /  11.3km/h 72% 0.00in /  0mm
12:19 71.2 °F /  21.8 °C 61.7 °F /  16.5 °C 30.01in /  1016.1hPa WNW 3.0mph /  4.8km/h 6.0mph /  9.7km/h 72% 0.00in /  0mm
12:24 71.6 °F /  22 °C 61.7 °F /  16.5 °C 30.01in /  1016.1hPa WNW 2.0mph /  3.2km/h 8.0mph /  12.9km/h 71% 0.00in /  0mm
12:29 71.2 °F /  21.8 °C 61.3 °F /  16.3 °C 30.01in /  1016.1hPa WNW 7.0mph /  11.3km/h 9.0mph /  14.5km/h 71% 0.00in /  0mm
12:34 71.4 °F /  21.9 °C 62.3 °F /  16.8 °C 30.01in /  1016.1hPa WSW 5.0mph /  8km/h 10.0mph /  16.1km/h 73% 0.00in /  0mm
12:39 71.9 °F /  22.2 °C 62.8 °F /  17.1 °C 30.00in /  1015.8hPa WSW 4.0mph /  6.4km/h 10.0mph /  16.1km/h 73% 0.00in /  0mm
12:44 72.6 °F /  22.6 °C 63.4 °F /  17.4 °C 30.00in /  1015.8hPa WSW 4.0mph /  6.4km/h 8.0mph /  12.9km/h 73% 0.00in /  0mm
12:49 73.9 °F /  23.3 °C 63.5 °F /  17.5 °C 30.00in /  1015.8hPa SW 5.0mph /  8km/h 14.0mph /  22.5km/h 70% 0.00in /  0mm
12:54 74.3 °F /  23.5 °C 63.9 °F /  17.7 °C 30.00in /  1015.8hPa WSW 5.0mph /  8km/h 11.0mph /  17.7km/h 70% 0.00in /  0mm
12:59 73.8 °F /  23.2 °C 63.8 °F /  17.7 °C 30.00in /  1015.8hPa West 4.0mph /  6.4km/h 10.0mph /  16.1km/h 71% 0.00in /  0mm
13:04 72.9 °F /  22.7 °C 62.9 °F /  17.2 °C 30.00in /  1015.8hPa SW 5.0mph /  8km/h 11.0mph /  17.7km/h 71% 0.00in /  0mm
13:09 72.2 °F /  22.3 °C 62.7 °F /  17.1 °C 30.00in /  1015.8hPa SW 6.0mph /  9.7km/h 11.0mph /  17.7km/h 72% 0.00in /  0mm
13:14 72.5 °F /  22.5 °C 63.0 °F /  17.2 °C 30.00in /  1015.8hPa SW 6.0mph /  9.7km/h 13.0mph /  20.9km/h 72% 0.00in /  0mm
13:19 72.4 °F /  22.4 °C 63.3 °F /  17.4 °C 30.00in /  1015.8hPa WSW 5.0mph /  8km/h 13.0mph /  20.9km/h 73% 0.00in /  0mm
13:24 72.2 °F /  22.3 °C 62.7 °F /  17.1 °C 30.00in /  1015.8hPa SW 7.0mph /  11.3km/h 11.0mph /  17.7km/h 72% 0.00in /  0mm
13:29 72.1 °F /  22.3 °C 62.6 °F /  17 °C 30.00in /  1015.8hPa West 5.0mph /  8km/h 11.0mph /  17.7km/h 72% 0.00in /  0mm
13:34 71.6 °F /  22 °C 62.5 °F /  16.9 °C 30.00in /  1015.8hPa SW 5.0mph /  8km/h 11.0mph /  17.7km/h 73% 0.00in /  0mm
13:39 71.3 °F /  21.8 °C 62.2 °F /  16.8 °C 30.00in /  1015.8hPa SW 7.0mph /  11.3km/h 10.0mph /  16.1km/h 73% 0.00in /  0mm
13:44 70.9 °F /  21.6 °C 62.2 °F /  16.8 °C 30.01in /  1016.1hPa SW 6.0mph /  9.7km/h 13.0mph /  20.9km/h 74% 0.00in /  0mm
13:49 70.6 °F /  21.4 °C 61.9 °F /  16.6 °C 30.01in /  1016.1hPa West 8.0mph /  12.9km/h 13.0mph /  20.9km/h 74% 0.00in /  0mm
13:54 70.4 °F /  21.3 °C 62.1 °F /  16.7 °C 30.00in /  1015.8hPa WSW 6.0mph /  9.7km/h 12.0mph /  19.3km/h 75% 0.00in /  0mm
13:59 70.4 °F /  21.3 °C 62.1 °F /  16.7 °C 30.00in /  1015.8hPa WSW 5.0mph /  8km/h 10.0mph /  16.1km/h 75% 0.00in /  0mm
14:04 70.6 °F /  21.4 °C 62.7 °F /  17.1 °C 30.00in /  1015.8hPa WSW 5.0mph /  8km/h 10.0mph /  16.1km/h 76% 0.00in /  0mm
14:09 70.6 °F /  21.4 °C 61.9 °F /  16.6 °C 30.00in /  1015.8hPa WSW 5.0mph /  8km/h 12.0mph /  19.3km/h 74% 0.00in /  0mm
14:14 71.0 °F /  21.7 °C 62.7 °F /  17.1 °C 30.00in /  1015.8hPa SW 6.0mph /  9.7km/h 12.0mph /  19.3km/h 75% 0.00in /  0mm
14:19 71.3 °F /  21.8 °C 62.6 °F /  17 °C 30.00in /  1015.8hPa WSW 5.0mph /  8km/h 10.0mph /  16.1km/h 74% 0.00in /  0mm
14:24 71.4 °F /  21.9 °C 62.7 °F /  17.1 °C 30.00in /  1015.8hPa WSW 5.0mph /  8km/h 11.0mph /  17.7km/h 74% 0.00in /  0mm
14:29 71.9 °F /  22.2 °C 62.4 °F /  16.9 °C 30.00in /  1015.8hPa WSW 5.0mph /  8km/h 14.0mph /  22.5km/h 72% 0.00in /  0mm
14:39 72.6 °F /  22.6 °C 63.1 °F /  17.3 °C 30.00in /  1015.8hPa WSW 9.0mph /  14.5km/h 10.0mph /  16.1km/h 72% 0.00in /  0mm
14:44 72.3 °F /  22.4 °C 62.4 °F /  16.9 °C 30.00in /  1015.8hPa SW 5.0mph /  8km/h 12.0mph /  19.3km/h 71% 0.00in /  0mm
14:49 72.6 °F /  22.6 °C 62.7 °F /  17.1 °C 30.00in /  1015.8hPa WSW 5.0mph /  8km/h 13.0mph /  20.9km/h 71% 0.00in /  0mm
14:54 73.5 °F /  23.1 °C 62.7 °F /  17.1 °C 30.00in /  1015.8hPa SSW 7.0mph /  11.3km/h 14.0mph /  22.5km/h 69% 0.00in /  0mm
14:59 74.1 °F /  23.4 °C 62.4 °F /  16.9 °C 30.00in /  1015.8hPa SW 6.0mph /  9.7km/h 11.0mph /  17.7km/h 67% 0.00in /  0mm
15:04 73.9 °F /  23.3 °C 63.1 °F /  17.3 °C 30.00in /  1015.8hPa SW 6.0mph /  9.7km/h 13.0mph /  20.9km/h 69% 0.00in /  0mm
15:09 73.9 °F /  23.3 °C 62.2 °F /  16.8 °C 30.00in /  1015.8hPa SW 6.0mph /  9.7km/h 15.0mph /  24.1km/h 67% 0.00in /  0mm
15:14 73.7 °F /  23.2 °C 62.5 °F /  16.9 °C 30.00in /  1015.8hPa WSW 7.0mph /  11.3km/h 15.0mph /  24.1km/h 68% 0.00in /  0mm
15:19 74.8 °F /  23.8 °C 62.2 °F /  16.8 °C 30.00in /  1015.8hPa WSW 7.0mph /  11.3km/h 15.0mph /  24.1km/h 65% 0.00in /  0mm
15:24 74.4 °F /  23.6 °C 62.7 °F /  17.1 °C 30.00in /  1015.8hPa WSW 6.0mph /  9.7km/h 13.0mph /  20.9km/h 67% 0.00in /  0mm
15:29 74.1 °F /  23.4 °C 62.0 °F /  16.7 °C 30.00in /  1015.8hPa WSW 6.0mph /  9.7km/h 11.0mph /  17.7km/h 66% 0.00in /  0mm
15:34 73.7 °F /  23.2 °C 62.5 °F /  16.9 °C 29.99in /  1015.5hPa WSW 6.0mph /  9.7km/h 11.0mph /  17.7km/h 68% 0.00in /  0mm
15:39 74.5 °F /  23.6 °C 62.8 °F /  17.1 °C 30.00in /  1015.8hPa SW 4.0mph /  6.4km/h 10.0mph /  16.1km/h 67% 0.00in /  0mm
15:44 74.7 °F /  23.7 °C 63.0 °F /  17.2 °C 30.00in /  1015.8hPa SW 8.0mph /  12.9km/h 14.0mph /  22.5km/h 67% 0.00in /  0mm
15:49 74.5 °F /  23.6 °C 63.2 °F /  17.3 °C 30.00in /  1015.8hPa SSW 3.0mph /  4.8km/h 10.0mph /  16.1km/h 68% 0.00in /  0mm
15:54 74.5 °F /  23.6 °C 62.4 °F /  16.9 °C 29.99in /  1015.5hPa WSW 8.0mph /  12.9km/h 12.0mph /  19.3km/h 66% 0.00in /  0mm
15:59 75.2 °F /  24 °C 63.5 °F /  17.5 °C 29.99in /  1015.5hPa WSW 6.0mph /  9.7km/h 10.0mph /  16.1km/h 67% 0.00in /  0mm
16:04 75.4 °F /  24.1 °C 62.8 °F /  17.1 °C 29.99in /  1015.5hPa WSW 6.0mph /  9.7km/h 11.0mph /  17.7km/h 65% 0.00in /  0mm
16:09 74.9 °F /  23.8 °C 63.6 °F /  17.6 °C 29.99in /  1015.5hPa WSW 6.0mph /  9.7km/h 13.0mph /  20.9km/h 68% 0.00in /  0mm
16:14 75.6 °F /  24.2 °C 63.9 °F /  17.7 °C 29.99in /  1015.5hPa WSW 6.0mph /  9.7km/h 13.0mph /  20.9km/h 67% 0.00in /  0mm
16:19 74.8 °F /  23.8 °C 62.7 °F /  17.1 °C 29.99in /  1015.5hPa WSW 7.0mph /  11.3km/h 14.0mph /  22.5km/h 66% 0.00in /  0mm
16:24 74.7 °F /  23.7 °C 62.6 °F /  17 °C 29.99in /  1015.5hPa WSW 8.0mph /  12.9km/h 14.0mph /  22.5km/h 66% 0.00in /  0mm
16:29 74.5 °F /  23.6 °C 62.8 °F /  17.1 °C 29.98in /  1015.1hPa WSW 6.0mph /  9.7km/h 13.0mph /  20.9km/h 67% 0.00in /  0mm
16:34 75.1 °F /  23.9 °C 63.0 °F /  17.2 °C 29.98in /  1015.1hPa SW 7.0mph /  11.3km/h 13.0mph /  20.9km/h 66% 0.00in /  0mm
16:39 75.0 °F /  23.9 °C 62.9 °F /  17.2 °C 29.98in /  1015.1hPa West 7.0mph /  11.3km/h 12.0mph /  19.3km/h 66% 0.00in /  0mm
16:44 75.0 °F /  23.9 °C 63.3 °F /  17.4 °C 29.98in /  1015.1hPa WSW 5.0mph /  8km/h 13.0mph /  20.9km/h 67% 0.00in /  0mm
16:49 75.1 °F /  23.9 °C 62.5 °F /  16.9 °C 29.98in /  1015.1hPa WSW 4.0mph /  6.4km/h 12.0mph /  19.3km/h 65% 0.00in /  0mm
16:54 75.1 °F /  23.9 °C 63.0 °F /  17.2 °C 29.98in /  1015.1hPa SW 14.0mph /  22.5km/h 14.0mph /  22.5km/h 66% 0.00in /  0mm
16:59 74.9 °F /  23.8 °C 62.8 °F /  17.1 °C 29.98in /  1015.1hPa WSW 6.0mph /  9.7km/h 14.0mph /  22.5km/h 66% 0.00in /  0mm
17:04 74.2 °F /  23.4 °C 62.5 °F /  16.9 °C 29.98in /  1015.1hPa SW 7.0mph /  11.3km/h 14.0mph /  22.5km/h 67% 0.00in /  0mm
17:09 74.4 °F /  23.6 °C 63.6 °F /  17.6 °C 29.97in /  1014.8hPa WSW 7.0mph /  11.3km/h 15.0mph /  24.1km/h 69% 0.00in /  0mm
17:14 74.5 °F /  23.6 °C 63.2 °F /  17.3 °C 29.97in /  1014.8hPa WSW 7.0mph /  11.3km/h 17.0mph /  27.4km/h 68% 0.00in /  0mm
17:19 74.5 °F /  23.6 °C 63.7 °F /  17.6 °C 29.97in /  1014.8hPa SW 7.0mph /  11.3km/h 17.0mph /  27.4km/h 69% 0.00in /  0mm
17:24 74.4 °F /  23.6 °C 63.1 °F /  17.3 °C 29.97in /  1014.8hPa WSW 11.0mph /  17.7km/h 14.0mph /  22.5km/h 68% 0.00in /  0mm
17:29 74.1 °F /  23.4 °C 63.3 °F /  17.4 °C 29.97in /  1014.8hPa WSW 7.0mph /  11.3km/h 15.0mph /  24.1km/h 69% 0.00in /  0mm
17:34 74.0 °F /  23.3 °C 63.2 °F /  17.3 °C 29.97in /  1014.8hPa SW 8.0mph /  12.9km/h 17.0mph /  27.4km/h 69% 0.00in /  0mm
17:39 73.7 °F /  23.2 °C 63.3 °F /  17.4 °C 29.97in /  1014.8hPa SW 7.0mph /  11.3km/h 17.0mph /  27.4km/h 70% 0.00in /  0mm
17:44 73.7 °F /  23.2 °C 63.7 °F /  17.6 °C 29.97in /  1014.8hPa SW 7.0mph /  11.3km/h 12.0mph /  19.3km/h 71% 0.00in /  0mm
17:49 73.3 °F /  22.9 °C 63.7 °F /  17.6 °C 29.97in /  1014.8hPa WSW 7.0mph /  11.3km/h 12.0mph /  19.3km/h 72% 0.00in /  0mm
17:54 73.0 °F /  22.8 °C 63.8 °F /  17.7 °C 29.97in /  1014.8hPa SW 7.0mph /  11.3km/h 14.0mph /  22.5km/h 73% 0.00in /  0mm
17:59 73.1 °F /  22.8 °C 63.9 °F /  17.7 °C 29.97in /  1014.8hPa West 10.0mph /  16.1km/h 13.0mph /  20.9km/h 73% 0.00in /  0mm
18:04 73.5 °F /  23.1 °C 64.3 °F /  17.9 °C 29.97in /  1014.8hPa SSW 7.0mph /  11.3km/h 14.0mph /  22.5km/h 73% 0.00in /  0mm
18:09 73.6 °F /  23.1 °C 63.6 °F /  17.6 °C 29.97in /  1014.8hPa WSW 8.0mph /  12.9km/h 12.0mph /  19.3km/h 71% 0.00in /  0mm
18:14 73.3 °F /  22.9 °C 63.7 °F /  17.6 °C 29.97in /  1014.8hPa West 8.0mph /  12.9km/h 15.0mph /  24.1km/h 72% 0.00in /  0mm
18:19 72.7 °F /  22.6 °C 63.5 °F /  17.5 °C 29.96in /  1014.4hPa WSW 10.0mph /  16.1km/h 13.0mph /  20.9km/h 73% 0.00in /  0mm
18:24 72.8 °F /  22.7 °C 64.0 °F /  17.8 °C 29.96in /  1014.4hPa West 8.0mph /  12.9km/h 17.0mph /  27.4km/h 74% 0.00in /  0mm
18:29 73.1 °F /  22.8 °C 64.3 °F /  17.9 °C 29.96in /  1014.4hPa WSW 8.0mph /  12.9km/h 17.0mph /  27.4km/h 74% 0.00in /  0mm
18:34 73.1 °F /  22.8 °C 64.3 °F /  17.9 °C 29.96in /  1014.4hPa WSW 7.0mph /  11.3km/h 16.0mph /  25.7km/h 74% 0.00in /  0mm
18:39 73.1 °F /  22.8 °C 64.3 °F /  17.9 °C 29.96in /  1014.4hPa WSW 7.0mph /  11.3km/h 16.0mph /  25.7km/h 74% 0.00in /  0mm
18:44 73.2 °F /  22.9 °C 64.0 °F /  17.8 °C 29.96in /  1014.4hPa SW 7.0mph /  11.3km/h 12.0mph /  19.3km/h 73% 0.00in /  0mm
18:49 72.9 °F /  22.7 °C 63.7 °F /  17.6 °C 29.96in /  1014.4hPa WSW 5.0mph /  8km/h 13.0mph /  20.9km/h 73% 0.00in /  0mm
18:54 72.9 °F /  22.7 °C 63.7 °F /  17.6 °C 29.96in /  1014.4hPa West 7.0mph /  11.3km/h 13.0mph /  20.9km/h 73% 0.00in /  0mm
18:59 72.7 °F /  22.6 °C 63.5 °F /  17.5 °C 29.96in /  1014.4hPa WSW 6.0mph /  9.7km/h 13.0mph /  20.9km/h 73% 0.00in /  0mm
19:04 72.6 °F /  22.6 °C 63.8 °F /  17.7 °C 29.96in /  1014.4hPa SW 6.0mph /  9.7km/h 13.0mph /  20.9km/h 74% 0.00in /  0mm
19:09 72.5 °F /  22.5 °C 63.7 °F /  17.6 °C 29.96in /  1014.4hPa SW 4.0mph /  6.4km/h 13.0mph /  20.9km/h 74% 0.00in /  0mm
19:14 72.4 °F /  22.4 °C 63.6 °F /  17.6 °C 29.96in /  1014.4hPa West 6.0mph /  9.7km/h 14.0mph /  22.5km/h 74% 0.00in /  0mm
19:19 72.4 °F /  22.4 °C 63.6 °F /  17.6 °C 29.96in /  1014.4hPa SW 9.0mph /  14.5km/h 14.0mph /  22.5km/h 74% 0.00in /  0mm
19:24 72.3 °F /  22.4 °C 63.9 °F /  17.7 °C 29.95in /  1014.1hPa SW 8.0mph /  12.9km/h 11.0mph /  17.7km/h 75% 0.00in /  0mm
19:29 72.1 °F /  22.3 °C 63.4 °F /  17.4 °C 29.95in /  1014.1hPa SW 7.0mph /  11.3km/h 15.0mph /  24.1km/h 74% 0.00in /  0mm
19:34 72.0 °F /  22.2 °C 64.0 °F /  17.8 °C 29.95in /  1014.1hPa SW 7.0mph /  11.3km/h 15.0mph /  24.1km/h 76% 0.00in /  0mm
19:39 71.9 °F /  22.2 °C 63.5 °F /  17.5 °C 29.95in /  1014.1hPa WSW 7.0mph /  11.3km/h 14.0mph /  22.5km/h 75% 0.00in /  0mm
19:44 71.9 °F /  22.2 °C 63.9 °F /  17.7 °C 29.96in /  1014.4hPa WSW 6.0mph /  9.7km/h 14.0mph /  22.5km/h 76% 0.00in /  0mm
19:49 71.9 °F /  22.2 °C 63.9 °F /  17.7 °C 29.96in /  1014.4hPa West 4.0mph /  6.4km/h 11.0mph /  17.7km/h 76% 0.00in /  0mm
19:54 71.7 °F /  22.1 °C 63.7 °F /  17.6 °C 29.96in /  1014.4hPa WSW 5.0mph /  8km/h 14.0mph /  22.5km/h 76% 0.00in /  0mm
19:59 71.5 °F /  21.9 °C 63.9 °F /  17.7 °C 29.96in /  1014.4hPa WSW 6.0mph /  9.7km/h 14.0mph /  22.5km/h 77% 0.00in /  0mm
20:04 71.4 °F /  21.9 °C 64.2 °F /  17.9 °C 29.96in /  1014.4hPa WSW 6.0mph /  9.7km/h 11.0mph /  17.7km/h 78% 0.00in /  0mm
20:09 71.2 °F /  21.8 °C 64.0 °F /  17.8 °C 29.96in /  1014.4hPa SW 5.0mph /  8km/h 11.0mph /  17.7km/h 78% 0.00in /  0mm
20:14 71.2 °F /  21.8 °C 64.0 °F /  17.8 °C 29.96in /  1014.4hPa WSW 9.0mph /  14.5km/h 14.0mph /  22.5km/h 78% 0.00in /  0mm
20:19 71.1 °F /  21.7 °C 63.9 °F /  17.7 °C 29.96in /  1014.4hPa SW 6.0mph /  9.7km/h 15.0mph /  24.1km/h 78% 0.00in /  0mm
20:24 71.1 °F /  21.7 °C 64.3 °F /  17.9 °C 29.96in /  1014.4hPa WSW 7.0mph /  11.3km/h 15.0mph /  24.1km/h 79% 0.00in /  0mm
20:29 71.0 °F /  21.7 °C 64.2 °F /  17.9 °C 29.97in /  1014.8hPa WSW 7.0mph /  11.3km/h 15.0mph /  24.1km/h 79% 0.00in /  0mm
20:34 71.0 °F /  21.7 °C 64.2 °F /  17.9 °C 29.97in /  1014.8hPa WSW 7.0mph /  11.3km/h 15.0mph /  24.1km/h 79% 0.00in /  0mm
20:39 71.0 °F /  21.7 °C 64.2 °F /  17.9 °C 29.97in /  1014.8hPa WSW 5.0mph /  8km/h 15.0mph /  24.1km/h 79% 0.00in /  0mm
20:44 71.1 °F /  21.7 °C 64.3 °F /  17.9 °C 29.96in /  1014.4hPa WSW 3.0mph /  4.8km/h 11.0mph /  17.7km/h 79% 0.00in /  0mm
20:49 71.0 °F /  21.7 °C 64.2 °F /  17.9 °C 29.96in /  1014.4hPa SW 10.0mph /  16.1km/h 14.0mph /  22.5km/h 79% 0.00in /  0mm
20:54 70.9 °F /  21.6 °C 64.1 °F /  17.8 °C 29.97in /  1014.8hPa SW 6.0mph /  9.7km/h 17.0mph /  27.4km/h 79% 0.00in /  0mm
20:59 70.8 °F /  21.6 °C 64.0 °F /  17.8 °C 29.97in /  1014.8hPa WSW 6.0mph /  9.7km/h 17.0mph /  27.4km/h 79% 0.00in /  0mm
21:04 70.8 °F /  21.6 °C 64.3 °F /  17.9 °C 29.97in /  1014.8hPa WSW 5.0mph /  8km/h 12.0mph /  19.3km/h 80% 0.00in /  0mm
21:09 70.9 °F /  21.6 °C 64.4 °F /  18 °C 29.97in /  1014.8hPa WSW 6.0mph /  9.7km/h 14.0mph /  22.5km/h 80% 0.00in /  0mm
21:14 70.8 °F /  21.6 °C 64.3 °F /  17.9 °C 29.97in /  1014.8hPa WSW 7.0mph /  11.3km/h 14.0mph /  22.5km/h 80% 0.00in /  0mm
21:19 70.8 °F /  21.6 °C 64.7 °F /  18.2 °C 29.97in /  1014.8hPa SSW 7.0mph /  11.3km/h 12.0mph /  19.3km/h 81% 0.00in /  0mm
21:24 70.8 °F /  21.6 °C 64.7 °F /  18.2 °C 29.97in /  1014.8hPa West 3.0mph /  4.8km/h 11.0mph /  17.7km/h 81% 0.00in /  0mm
21:29 70.9 °F /  21.6 °C 64.8 °F /  18.2 °C 29.97in /  1014.8hPa SW 3.0mph /  4.8km/h 12.0mph /  19.3km/h 81% 0.00in /  0mm
21:34 70.8 °F /  21.6 °C 64.7 °F /  18.2 °C 29.97in /  1014.8hPa WSW 5.0mph /  8km/h 8.0mph /  12.9km/h 81% 0.00in /  0mm
21:39 70.7 °F /  21.5 °C 64.9 °F /  18.3 °C 29.96in /  1014.4hPa SW 3.0mph /  4.8km/h 10.0mph /  16.1km/h 82% 0.00in /  0mm
21:44 70.6 °F /  21.4 °C 64.8 °F /  18.2 °C 29.97in /  1014.8hPa SW 6.0mph /  9.7km/h 13.0mph /  20.9km/h 82% 0.00in /  0mm
21:49 70.5 °F /  21.4 °C 64.7 °F /  18.2 °C 29.96in /  1014.4hPa WSW 3.0mph /  4.8km/h 9.0mph /  14.5km/h 82% 0.00in /  0mm
21:54 70.4 °F /  21.3 °C 65.0 °F /  18.3 °C 29.96in /  1014.4hPa WSW 5.0mph /  8km/h 10.0mph /  16.1km/h 83% 0.00in /  0mm
21:59 70.4 °F /  21.3 °C 64.6 °F /  18.1 °C 29.96in /  1014.4hPa SW 5.0mph /  8km/h 10.0mph /  16.1km/h 82% 0.00in /  0mm
22:04 70.4 °F /  21.3 °C 64.6 °F /  18.1 °C 29.96in /  1014.4hPa SW 5.0mph /  8km/h 11.0mph /  17.7km/h 82% 0.00in /  0mm
22:09 70.3 °F /  21.3 °C 64.9 °F /  18.3 °C 29.96in /  1014.4hPa SW 5.0mph /  8km/h 11.0mph /  17.7km/h 83% 0.00in /  0mm
22:14 70.3 °F /  21.3 °C 64.9 °F /  18.3 °C 29.96in /  1014.4hPa SW 5.0mph /  8km/h 10.0mph /  16.1km/h 83% 0.00in /  0mm
22:19 70.3 °F /  21.3 °C 64.9 °F /  18.3 °C 29.95in /  1014.1hPa WSW 6.0mph /  9.7km/h 11.0mph /  17.7km/h 83% 0.00in /  0mm
22:24 70.2 °F /  21.2 °C 64.8 °F /  18.2 °C 29.95in /  1014.1hPa SW 5.0mph /  8km/h 9.0mph /  14.5km/h 83% 0.00in /  0mm
22:29 70.1 °F /  21.2 °C 65.0 °F /  18.3 °C 29.95in /  1014.1hPa West 2.0mph /  3.2km/h 7.0mph /  11.3km/h 84% 0.00in /  0mm
22:34 70.0 °F /  21.1 °C 64.9 °F /  18.3 °C 29.95in /  1014.1hPa SW 6.0mph /  9.7km/h 7.0mph /  11.3km/h 84% 0.00in /  0mm
22:39 70.0 °F /  21.1 °C 64.9 °F /  18.3 °C 29.95in /  1014.1hPa SW 4.0mph /  6.4km/h 10.0mph /  16.1km/h 84% 0.00in /  0mm
22:44 70.1 °F /  21.2 °C 65.0 °F /  18.3 °C 29.95in /  1014.1hPa South 1.0mph /  1.6km/h 7.0mph /  11.3km/h 84% 0.00in /  0mm
22:49 70.1 °F /  21.2 °C 65.0 °F /  18.3 °C 29.95in /  1014.1hPa WSW 3.0mph /  4.8km/h 9.0mph /  14.5km/h 84% 0.00in /  0mm
22:54 70.0 °F /  21.1 °C 64.9 °F /  18.3 °C 29.94in /  1013.8hPa WSW 3.0mph /  4.8km/h 9.0mph /  14.5km/h 84% 0.00in /  0mm
22:59 70.0 °F /  21.1 °C 65.3 °F /  18.5 °C 29.95in /  1014.1hPa WSW 3.0mph /  4.8km/h 6.0mph /  9.7km/h 85% 0.00in /  0mm
23:04 70.0 °F /  21.1 °C 65.3 °F /  18.5 °C 29.94in /  1013.8hPa WSW 3.0mph /  4.8km/h 5.0mph /  8km/h 85% 0.00in /  0mm
23:09 69.9 °F /  21.1 °C 65.2 °F /  18.4 °C 29.95in /  1014.1hPa WSW 3.0mph /  4.8km/h 5.0mph /  8km/h 85% 0.00in /  0mm
23:14 69.7 °F /  20.9 °C 65.0 °F /  18.3 °C 29.95in /  1014.1hPa WSW 2.0mph /  3.2km/h 5.0mph /  8km/h 85% 0.00in /  0mm
23:19 69.7 °F /  20.9 °C 65.0 °F /  18.3 °C 29.95in /  1014.1hPa SW 1.0mph /  1.6km/h 5.0mph /  8km/h 85% 0.00in /  0mm
23:24 69.4 °F /  20.8 °C 64.4 °F /  18 °C 29.95in /  1014.1hPa WSW 2.0mph /  3.2km/h 5.0mph /  8km/h 84% 0.00in /  0mm
23:29 69.4 °F /  20.8 °C 64.0 °F /  17.8 °C 29.95in /  1014.1hPa West 2.0mph /  3.2km/h 5.0mph /  8km/h 83% 0.00in /  0mm
23:34 69.4 °F /  20.8 °C 63.7 °F /  17.6 °C 29.95in /  1014.1hPa Calm   5.0mph /  8km/h 82% 0.00in /  0mm
23:39 69.2 °F /  20.7 °C 63.5 °F /  17.5 °C 29.94in /  1013.8hPa WSW 1.0mph /  1.6km/h 5.0mph /  8km/h 82% 0.00in /  0mm
23:44 69.0 °F /  20.6 °C 63.3 °F /  17.4 °C 29.94in /  1013.8hPa Calm   4.0mph /  6.4km/h 82% 0.00in /  0mm
23:49 68.7 °F /  20.4 °C 63.0 °F /  17.2 °C 29.95in /  1014.1hPa SW 1.0mph /  1.6km/h 4.0mph /  6.4km/h 82% 0.00in /  0mm
23:54 68.4 °F /  20.2 °C 62.7 °F /  17.1 °C 29.95in /  1014.1hPa Calm   3.0mph /  4.8km/h 82% 0.00in /  0mm
23:59 68.1 °F /  20.1 °C 62.7 °F /  17.1 °C 29.95in /  1014.1hPa Calm   3.0mph /  4.8km/h 83% 0.00in /  0mm
Buffalo, New York, USA
Compliments of Weather Underground - 2.5 mb